Time;durP1;ratioP1;P1;durP2;ratioP2;P2;SDS_P1;SDS_P2;PMS_P1;PMS_P2;Temp;Humidity;BMP_temperature;BMP_pressure;BME280_temperature;BME280_humidity;BME280_pressure;Samples;Min_cycle;Max_cycle;Signal;HPM_P1;HPM_P2
2021/01/24 00:01:54;;;;;;;3.60;3.30;;;6.40;90.50;;;;;;5076074;28;20497;-72
2021/01/24 00:04:21;;;;;;;3.70;3.40;;;6.30;90.50;;;;;;5075537;28;20985;-72
2021/01/24 00:06:47;;;;;;;2.73;2.53;;;6.10;90.40;;;;;;5075668;28;21003;-73
2021/01/24 00:09:13;;;;;;;3.30;3.00;;;6.00;90.40;;;;;;5075647;28;20843;-73
2021/01/24 00:11:39;;;;;;;3.40;3.10;;;6.00;90.60;;;;;;5075730;28;20820;-72
2021/01/24 00:14:06;;;;;;;3.40;3.10;;;5.80;90.60;;;;;;5075738;28;20467;-72
2021/01/24 00:16:32;;;;;;;3.30;3.00;;;5.70;90.60;;;;;;5075745;28;20437;-72
2021/01/24 00:18:59;;;;;;;3.13;2.90;;;5.50;90.60;;;;;;5075667;28;20440;-72
2021/01/24 00:21:25;;;;;;;3.70;3.40;;;5.30;90.70;;;;;;5075367;28;20969;-72
2021/01/24 00:23:51;;;;;;;3.53;3.20;;;5.20;90.90;;;;;;5075547;28;20526;-72
2021/01/24 00:26:17;;;;;;;4.23;3.67;;;5.10;90.80;;;;;;5075233;28;20472;-72
2021/01/24 00:28:43;;;;;;;4.57;4.17;;;5.00;90.90;;;;;;5075250;28;20441;-72
2021/01/24 00:31:10;;;;;;;4.47;4.07;;;4.90;91.00;;;;;;5075643;28;20441;-71
2021/01/24 00:33:37;;;;;;;4.70;4.30;;;4.80;91.00;;;;;;5075435;28;20461;-71
2021/01/24 00:36:03;;;;;;;3.50;3.20;;;4.70;91.00;;;;;;5075405;28;20445;-70
2021/01/24 00:38:30;;;;;;;3.93;3.23;;;4.50;91.10;;;;;;5075002;28;21002;-70
2021/01/24 00:40:56;;;;;;;4.80;4.30;;;4.50;91.40;;;;;;5075287;28;20449;-70
2021/01/24 00:43:22;;;;;;;5.17;3.90;;;4.40;91.60;;;;;;5075199;28;20848;-70
2021/01/24 00:45:50;;;;;;;4.53;4.13;;;4.30;91.80;;;;;;5075195;28;20461;-70
2021/01/24 00:48:17;;;;;;;3.90;3.50;;;4.20;91.90;;;;;;5075128;28;20463;-70
2021/01/24 00:50:43;;;;;;;4.53;4.13;;;4.10;92.10;;;;;;5075059;28;20449;-70
2021/01/24 00:53:09;;;;;;;5.30;4.80;;;4.10;92.40;;;;;;5075006;28;20444;-70
2021/01/24 00:55:35;;;;;;;5.30;4.80;;;4.10;92.40;;;;;;5073953;28;20783;-70
2021/01/24 00:58:02;;;;;;;5.60;5.10;;;4.10;92.40;;;;;;5074996;28;20429;-69
2021/01/24 01:00:28;;;;;;;3.90;3.50;;;4.10;92.50;;;;;;5074627;28;20821;-69
2021/01/24 01:02:54;;;;;;;4.13;3.83;;;4.10;92.50;;;;;;5074810;28;20448;-70
2021/01/24 01:05:21;;;;;;;4.10;3.67;;;4.10;92.50;;;;;;5074726;28;20842;-69
2021/01/24 01:07:48;;;;;;;5.30;4.80;;;4.10;92.60;;;;;;5074461;28;20854;-69
2021/01/24 01:10:14;;;;;;;5.43;4.67;;;4.10;92.50;;;;;;5074475;28;20449;-69
2021/01/24 01:12:40;;;;;;;4.80;4.40;;;4.10;92.60;;;;;;5074714;28;20428;-69
2021/01/24 01:15:07;;;;;;;6.27;5.50;;;4.00;92.50;;;;;;5074241;28;20463;-69
2021/01/24 01:17:33;;;;;;;8.00;7.30;;;4.00;92.70;;;;;;5074589;28;20455;-69
2021/01/24 01:19:59;;;;;;;9.40;8.50;;;3.90;92.70;;;;;;5074460;28;20467;-69
2021/01/24 01:22:27;;;;;;;9.63;8.73;;;3.90;92.90;;;;;;5074427;28;20444;-69
2021/01/24 01:24:53;;;;;;;8.87;8.07;;;3.80;92.90;;;;;;5074273;28;20542;-69
2021/01/24 01:27:19;;;;;;;8.50;7.70;;;3.80;93.00;;;;;;5074111;28;20444;-69
2021/01/24 01:29:45;;;;;;;8.90;8.00;;;3.80;93.20;;;;;;5074475;28;20459;-69
2021/01/24 01:32:11;;;;;;;7.87;7.17;;;3.70;93.30;;;;;;5074456;28;20442;-69
2021/01/24 01:34:37;;;;;;;7.37;6.27;;;3.60;93.50;;;;;;5073898;28;20852;-69
2021/01/24 01:37:04;;;;;;;6.70;6.03;;;3.60;93.60;;;;;;5074255;28;20452;-69
2021/01/24 01:39:31;;;;;;;5.70;5.13;;;3.60;93.70;;;;;;5074307;28;20444;-69
2021/01/24 01:41:57;;;;;;;5.93;5.43;;;3.60;93.70;;;;;;5074194;28;20451;-69
2021/01/24 01:44:23;;;;;;;3.57;3.30;;;3.50;93.80;;;;;;5073956;28;20530;-69
2021/01/24 01:46:53;;;;;;;3.70;3.40;;;3.50;93.80;;;;;;5073697;28;20480;-69
2021/01/24 01:49:19;;;;;;;3.33;3.13;;;3.40;93.90;;;;;;5073952;28;20451;-69
2021/01/24 01:51:47;;;;;;;2.20;2.10;;;3.40;94.10;;;;;;5073946;28;20448;-69
2021/01/24 01:54:13;;;;;;;2.27;2.07;;;3.40;94.30;;;;;;5073880;28;20464;-69
2021/01/24 01:56:41;;;;;;;3.07;2.27;;;3.40;94.30;;;;;;5073831;28;20500;-69
2021/01/24 01:59:07;;;;;;;2.07;1.87;;;3.30;94.40;;;;;;5073815;28;20444;-69
2021/01/24 02:01:45;;;;;;;2.37;2.20;;;3.20;94.50;;;;;;5073786;28;20502;-69
2021/01/24 02:04:17;;;;;;;2.60;2.40;;;3.20;94.80;;;;;;5073702;28;20472;-69
2021/01/24 02:06:56;;;;;;;2.87;2.67;;;3.30;94.80;;;;;;5073632;28;20461;-69
2021/01/24 02:09:30;;;;;;;2.93;2.73;;;3.20;94.80;;;;;;5073706;28;20428;-69
2021/01/24 02:12:08;;;;;;;2.80;2.60;;;3.20;95.00;;;;;;5073202;28;20456;-69
2021/01/24 02:14:42;;;;;;;3.00;2.80;;;3.20;95.00;;;;;;5073275;28;20993;-69
2021/01/24 02:17:13;;;;;;;3.33;2.53;;;3.20;95.00;;;;;;5073343;28;20439;-69
2021/01/24 02:19:49;;;;;;;2.67;2.47;;;3.10;95.00;;;;;;5073354;28;20952;-69
2021/01/24 02:22:17;;;;;;;2.87;2.67;;;3.20;95.20;;;;;;5073549;28;20427;-69
2021/01/24 02:24:51;;;;;;;2.63;2.43;;;3.10;95.20;;;;;;5073373;28;20464;-69
2021/01/24 02:27:22;;;;;;;2.20;2.00;;;3.00;95.40;;;;;;5073531;28;20429;-69
2021/01/24 02:29:58;;;;;;;2.10;2.00;;;3.00;95.60;;;;;;5073504;28;20432;-69
2021/01/24 02:32:26;;;;;;;2.13;2.03;;;3.00;95.60;;;;;;5073399;28;20494;-70
2021/01/24 02:34:54;;;;;;;1.80;1.70;;;2.90;95.70;;;;;;5073238;28;20468;-70
2021/01/24 02:37:21;;;;;;;1.73;1.63;;;2.90;95.80;;;;;;5073466;28;20462;-70
2021/01/24 02:39:48;;;;;;;2.27;2.07;;;3.00;95.80;;;;;;5073336;28;20490;-70
2021/01/24 02:42:16;;;;;;;1.93;1.80;;;3.00;95.80;;;;;;5073358;28;20454;-70
2021/01/24 02:44:44;;;;;;;1.73;1.63;;;3.00;95.90;;;;;;5073237;28;20459;-70
2021/01/24 02:47:12;;;;;;;1.97;1.77;;;3.00;95.80;;;;;;5073305;28;20470;-70
2021/01/24 02:49:41;;;;;;;1.80;1.70;;;3.00;95.70;;;;;;5073236;28;20465;-70
2021/01/24 02:52:09;;;;;;;1.83;1.60;;;2.90;95.80;;;;;;5073263;28;20478;-70
2021/01/24 02:54:37;;;;;;;2.40;1.47;;;2.90;95.90;;;;;;5073157;28;20547;-71
2021/01/24 02:57:04;;;;;;;1.73;1.60;;;2.90;96.00;;;;;;5073193;28;20455;-71
2021/01/24 02:59:31;;;;;;;1.80;1.70;;;2.80;96.10;;;;;;5072805;28;20969;-71
2021/01/24 03:01:57;;;;;;;1.90;1.80;;;2.70;96.30;;;;;;5073106;28;20440;-71
2021/01/24 03:04:24;;;;;;;1.93;1.73;;;2.70;96.40;;;;;;5072705;28;20485;-71
2021/01/24 03:06:51;;;;;;;3.07;2.40;;;2.70;96.60;;;;;;5073046;28;20482;-71
2021/01/24 03:09:17;;;;;;;3.40;2.33;;;2.70;96.70;;;;;;5073031;28;20448;-71
2021/01/24 03:11:46;;;;;;;3.17;2.63;;;2.70;96.80;;;;;;5072855;28;20455;-71
2021/01/24 03:14:18;;;;;;;2.97;2.60;;;2.70;96.80;;;;;;5072957;28;20467;-71
2021/01/24 03:16:47;;;;;;;3.10;2.80;;;2.60;96.80;;;;;;5073079;28;20438;-70
2021/01/24 03:19:18;;;;;;;4.57;3.30;;;2.70;97.00;;;;;;5076242;28;20454;-70
2021/01/24 03:21:46;;;;;;;2.80;2.43;;;2.70;96.90;;;;;;5076810;28;20427;-70
2021/01/24 03:24:14;;;;;;;3.67;3.37;;;2.70;96.90;;;;;;5076659;28;20465;-70
2021/01/24 03:26:42;;;;;;;4.00;3.40;;;2.70;96.90;;;;;;5076651;28;20476;-70
2021/01/24 03:29:08;;;;;;;5.00;4.20;;;2.70;97.00;;;;;;5076660;28;20438;-70
2021/01/24 03:31:34;;;;;;;4.00;3.57;;;2.70;96.90;;;;;;5076263;28;20791;-70
2021/01/24 03:34:04;;;;;;;5.90;4.40;;;2.60;96.80;;;;;;5076570;28;20464;-70
2021/01/24 03:36:30;;;;;;;4.30;3.83;;;2.70;97.10;;;;;;5076200;28;20939;-70
2021/01/24 03:38:56;;;;;;;5.30;4.27;;;2.70;97.00;;;;;;5076150;28;20961;-70
2021/01/24 03:41:23;;;;;;;5.50;5.00;;;2.70;96.90;;;;;;5076414;28;20456;-70
2021/01/24 03:43:49;;;;;;;6.00;4.77;;;2.70;96.80;;;;;;5076294;28;20471;-70
2021/01/24 03:46:15;;;;;;;5.40;4.33;;;2.70;96.90;;;;;;5075947;28;21015;-70
2021/01/24 03:48:41;;;;;;;6.10;4.90;;;2.70;96.90;;;;;;5076267;28;20446;-70
2021/01/24 03:51:08;;;;;;;6.50;4.60;;;2.70;97.20;;;;;;5076247;28;20479;-70
2021/01/24 03:53:34;;;;;;;6.63;4.97;;;2.60;96.80;;;;;;5076070;28;20464;-69
2021/01/24 03:56:00;;;;;;;4.83;4.30;;;2.60;97.00;;;;;;5075883;28;20447;-69
2021/01/24 03:58:27;;;;;;;5.60;4.40;;;2.70;97.00;;;;;;5076107;28;20449;-69
2021/01/24 04:00:53;;;;;;;6.40;4.40;;;2.70;97.10;;;;;;5076006;28;20481;-69
2021/01/24 04:03:19;;;;;;;5.70;4.77;;;2.70;97.00;;;;;;5075876;28;20516;-69
2021/01/24 04:05:45;;;;;;;4.70;4.30;;;2.70;97.00;;;;;;5075510;28;20996;-69
2021/01/24 04:08:13;;;;;;;5.47;4.07;;;2.60;97.00;;;;;;5075907;28;20444;-69
2021/01/24 04:10:39;;;;;;;7.60;5.17;;;2.60;97.10;;;;;;5075723;28;20470;-69
2021/01/24 04:13:05;;;;;;;6.37;4.90;;;2.60;97.20;;;;;;5075693;28;20440;-69
2021/01/24 04:15:33;;;;;;;5.60;4.13;;;2.70;97.10;;;;;;5075505;28;20811;-69
2021/01/24 04:17:59;;;;;;;5.30;4.77;;;2.70;97.10;;;;;;5075750;28;20806;-69
2021/01/24 04:20:25;;;;;;;5.93;5.33;;;2.70;97.00;;;;;;5075657;28;20444;-69
2021/01/24 04:22:51;;;;;;;6.20;5.37;;;2.80;97.00;;;;;;5075381;28;20972;-69
2021/01/24 04:25:18;;;;;;;8.77;5.47;;;2.80;97.00;;;;;;5075471;28;20506;-69
2021/01/24 04:27:44;;;;;;;5.40;4.87;;;2.80;97.30;;;;;;5075589;28;20554;-69
2021/01/24 04:30:11;;;;;;;7.10;5.80;;;2.80;96.80;;;;;;5074399;28;20449;-69
2021/01/24 04:32:38;;;;;;;9.00;5.80;;;2.80;96.90;;;;;;5075159;28;20949;-69
2021/01/24 04:35:06;;;;;;;7.60;5.83;;;2.90;96.90;;;;;;5075366;28;20466;-69
2021/01/24 04:37:32;;;;;;;6.83;5.77;;;2.80;96.80;;;;;;5075160;28;20953;-69
2021/01/24 04:39:59;;;;;;;9.50;6.57;;;2.80;96.80;;;;;;5074974;28;20828;-69
2021/01/24 04:42:25;;;;;;;10.63;7.07;;;2.90;96.80;;;;;;5075319;28;20447;-69
2021/01/24 04:44:51;;;;;;;10.90;7.57;;;2.90;96.80;;;;;;5075098;28;20468;-69
2021/01/24 04:47:20;;;;;;;8.67;7.70;;;2.90;96.80;;;;;;5075203;28;20501;-69
2021/01/24 04:49:47;;;;;;;9.80;8.03;;;2.90;96.80;;;;;;5075118;28;20450;-69
2021/01/24 04:52:14;;;;;;;10.10;7.93;;;2.90;96.80;;;;;;5074749;28;20968;-69
2021/01/24 04:54:42;;;;;;;11.20;9.67;;;2.90;96.80;;;;;;5074973;28;20520;-69
2021/01/24 04:57:10;;;;;;;10.23;8.50;;;2.90;96.90;;;;;;5074990;28;20459;-69
2021/01/24 04:59:36;;;;;;;11.10;8.57;;;2.90;96.80;;;;;;5074950;28;20455;-69
2021/01/24 05:02:03;;;;;;;11.47;9.20;;;2.90;96.70;;;;;;5074941;28;20838;-69
2021/01/24 05:04:29;;;;;;;11.23;8.67;;;2.90;96.60;;;;;;5074765;28;20472;-69
2021/01/24 05:06:56;;;;;;;11.67;9.10;;;3.00;96.60;;;;;;5074723;28;20487;-69
2021/01/24 05:09:23;;;;;;;10.23;8.90;;;3.00;96.60;;;;;;5074716;28;20448;-69
2021/01/24 05:11:50;;;;;;;10.37;8.47;;;2.90;96.60;;;;;;5074404;28;20460;-69
2021/01/24 05:14:18;;;;;;;11.43;9.50;;;2.90;96.60;;;;;;5074496;28;20563;-69
2021/01/24 05:16:47;;;;;;;11.60;8.40;;;2.90;96.60;;;;;;5074513;28;20443;-69
2021/01/24 05:19:14;;;;;;;12.60;9.20;;;2.80;96.70;;;;;;5074464;28;20449;-69
2021/01/24 05:21:40;;;;;;;9.30;8.30;;;2.80;96.80;;;;;;5074374;28;20503;-69
2021/01/24 05:24:11;;;;;;;11.77;9.50;;;2.80;96.80;;;;;;5074274;28;20467;-69
2021/01/24 05:26:38;;;;;;;12.50;9.07;;;2.80;96.90;;;;;;5074196;28;20478;-69
2021/01/24 05:29:04;;;;;;;14.93;10.70;;;2.90;96.90;;;;;;5074238;28;20450;-69
2021/01/24 05:31:31;;;;;;;15.07;10.70;;;2.80;96.90;;;;;;5074288;28;20478;-69
2021/01/24 05:33:57;;;;;;;17.80;12.30;;;2.80;96.90;;;;;;5074141;28;20471;-69
2021/01/24 05:36:24;;;;;;;15.33;11.23;;;2.80;97.00;;;;;;5074209;28;20442;-69
2021/01/24 05:38:53;;;;;;;15.87;11.33;;;2.80;97.10;;;;;;5074123;28;20443;-69
2021/01/24 05:41:20;;;;;;;19.40;13.37;;;2.80;97.10;;;;;;5073829;28;20534;-69
2021/01/24 05:43:47;;;;;;;18.23;12.23;;;2.70;97.10;;;;;;5073686;28;21004;-70
2021/01/24 05:46:13;;;;;;;19.67;12.10;;;2.70;97.20;;;;;;5073580;28;21061;-70
2021/01/24 05:48:48;;;;;;;20.13;13.40;;;2.70;97.20;;;;;;5073959;28;20442;-70
2021/01/24 05:51:15;;;;;;;18.60;12.83;;;2.80;97.30;;;;;;5073604;28;20436;-70
2021/01/24 05:53:45;;;;;;;19.90;12.80;;;2.80;97.30;;;;;;5073819;28;20478;-70
2021/01/24 05:56:16;;;;;;;20.17;13.80;;;2.80;97.30;;;;;;5073874;28;20463;-70
2021/01/24 05:58:43;;;;;;;19.83;12.50;;;2.90;97.30;;;;;;5073867;28;20440;-70
2021/01/24 06:01:09;;;;;;;17.43;11.70;;;2.90;97.30;;;;;;5073475;28;21023;-70
2021/01/24 06:03:36;;;;;;;17.60;12.13;;;2.90;97.30;;;;;;5073267;28;20536;-70
2021/01/24 06:06:03;;;;;;;16.77;11.30;;;3.00;97.10;;;;;;5073616;28;20479;-70
2021/01/24 06:08:29;;;;;;;15.00;10.50;;;3.00;97.00;;;;;;5073615;28;20453;-70
2021/01/24 06:10:58;;;;;;;13.80;10.03;;;3.00;97.00;;;;;;5073408;28;20551;-70
2021/01/24 06:13:26;;;;;;;14.90;10.37;;;3.00;97.00;;;;;;5073483;28;20468;-70
2021/01/24 06:15:53;;;;;;;13.37;10.67;;;3.10;96.90;;;;;;5073238;28;20853;-70
2021/01/24 06:18:23;;;;;;;15.10;11.00;;;3.20;96.70;;;;;;5073565;28;20447;-71
2021/01/24 06:20:53;;;;;;;13.40;9.60;;;3.20;96.60;;;;;;5073204;28;20948;-71
2021/01/24 06:23:24;;;;;;;14.60;10.90;;;3.20;96.50;;;;;;5073450;28;20535;-71
2021/01/24 06:25:52;;;;;;;13.47;9.90;;;3.20;96.40;;;;;;5073411;28;20464;-71
2021/01/24 06:28:23;;;;;;;14.93;11.20;;;3.20;96.40;;;;;;5073488;28;20450;-71
2021/01/24 06:30:50;;;;;;;16.73;12.30;;;3.20;96.30;;;;;;5073462;28;20440;-71
2021/01/24 06:33:19;;;;;;;19.30;11.90;;;3.30;96.30;;;;;;5073291;28;20474;-71
2021/01/24 06:35:48;;;;;;;16.83;11.50;;;3.30;96.20;;;;;;5073446;28;20438;-71
2021/01/24 06:38:27;;;;;;;21.67;12.60;;;3.20;96.20;;;;;;5073293;28;20451;-71
2021/01/24 06:40:53;;;;;;;18.50;12.87;;;3.20;96.30;;;;;;5073107;28;20796;-72
2021/01/24 06:43:32;;;;;;;23.47;13.63;;;3.20;96.30;;;;;;5072936;28;20513;-71
2021/01/24 06:45:58;;;;;;;17.67;11.90;;;3.20;96.30;;;;;;5073058;28;20468;-71
2021/01/24 06:48:45;;;;;;;18.10;11.93;;;3.20;96.40;;;;;;5073302;28;20440;-71
2021/01/24 06:51:33;;;;;;;21.53;13.87;;;3.20;96.50;;;;;;5073341;28;20431;-71
2021/01/24 06:54:00;;;;;;;17.43;13.20;;;3.10;96.60;;;;;;5076161;28;20517;-71
2021/01/24 06:56:39;;;;;;;14.87;11.03;;;3.10;96.70;;;;;;5077261;28;20451;-71
2021/01/24 06:59:06;;;;;;;18.20;11.30;;;3.10;96.80;;;;;;5077304;28;20459;-71
2021/01/24 07:01:33;;;;;;;19.90;13.60;;;3.10;96.80;;;;;;5076856;28;20447;-71
2021/01/24 07:04:40;;;;;;;21.47;13.87;;;3.10;96.90;;;;;;5076757;28;20885;-71
2021/01/24 07:07:35;;;;;;;18.17;12.50;;;3.00;97.10;;;;;;5076744;28;20554;-71
2021/01/24 07:10:04;;;;;;;14.43;10.40;;;3.00;97.10;;;;;;5077127;28;20447;-70
2021/01/24 07:12:42;;;;;;;17.30;12.03;;;3.00;97.20;;;;;;5076619;28;20450;-71
2021/01/24 07:15:10;;;;;;;19.53;13.03;;;3.10;97.20;;;;;;5076933;28;20512;-72
2021/01/24 07:17:37;;;;;;;18.50;12.23;;;3.00;97.10;;;;;;5076938;28;20436;-72
2021/01/24 07:20:07;;;;;;;18.73;12.47;;;3.00;97.20;;;;;;5077359;28;20435;-72
2021/01/24 07:22:35;;;;;;;18.03;13.47;;;3.00;97.20;;;;;;5076831;28;20447;-72
2021/01/24 07:25:01;;;;;;;21.43;13.60;;;3.10;97.20;;;;;;5076327;28;20467;-72
2021/01/24 07:27:29;;;;;;;23.70;15.00;;;3.10;97.20;;;;;;5076356;28;20448;-72
2021/01/24 07:29:55;;;;;;;23.13;16.80;;;3.00;97.30;;;;;;5076618;28;20459;-72
2021/01/24 07:32:23;;;;;;;23.27;15.60;;;3.00;97.40;;;;;;5076484;28;20450;-71
2021/01/24 07:34:51;;;;;;;26.70;16.33;;;3.00;97.50;;;;;;5076029;28;20521;-71
2021/01/24 07:37:18;;;;;;;23.77;15.33;;;3.00;97.60;;;;;;5076054;28;20980;-71
2021/01/24 07:39:47;;;;;;;22.90;16.13;;;3.00;97.70;;;;;;5076120;28;20480;-71
2021/01/24 07:42:14;;;;;;;23.90;16.07;;;3.00;97.70;;;;;;5076389;28;20451;-71
2021/01/24 07:44:42;;;;;;;23.60;17.07;;;3.00;97.70;;;;;;5076530;28;20473;-71
2021/01/24 07:47:09;;;;;;;25.03;17.67;;;3.00;97.80;;;;;;5076180;28;20485;-71
2021/01/24 07:49:35;;;;;;;27.20;19.40;;;3.00;97.80;;;;;;5076167;28;20442;-71
2021/01/24 07:52:03;;;;;;;25.27;17.13;;;3.00;97.80;;;;;;5076479;28;20447;-71
2021/01/24 07:54:30;;;;;;;25.17;18.37;;;3.00;97.80;;;;;;5075810;28;20459;-71
2021/01/24 07:56:57;;;;;;;26.00;18.60;;;3.00;97.70;;;;;;5076159;28;20440;-71
2021/01/24 07:59:25;;;;;;;28.80;19.13;;;3.00;97.70;;;;;;5075804;28;20447;-71
2021/01/24 08:01:53;;;;;;;27.73;18.07;;;3.00;97.70;;;;;;5076094;28;20447;-71
2021/01/24 08:04:22;;;;;;;23.70;17.47;;;3.00;97.80;;;;;;5075831;28;20464;-71
2021/01/24 08:06:49;;;;;;;25.33;18.03;;;3.00;97.90;;;;;;5075946;28;20506;-71
2021/01/24 08:09:17;;;;;;;21.70;15.83;;;3.00;97.80;;;;;;5076018;28;20452;-71
2021/01/24 08:11:43;;;;;;;25.60;18.03;;;3.00;97.80;;;;;;5075652;28;20460;-71
2021/01/24 08:14:11;;;;;;;26.20;17.57;;;3.10;97.80;;;;;;5075830;28;20468;-71
2021/01/24 08:16:41;;;;;;;32.57;17.90;;;3.10;97.70;;;;;;5075847;28;20443;-70
2021/01/24 08:19:10;;;;;;;24.03;16.90;;;3.10;97.70;;;;;;5075891;28;20482;-70
2021/01/24 08:21:37;;;;;;;35.20;18.83;;;3.10;97.70;;;;;;5075759;28;20448;-71
2021/01/24 08:24:05;;;;;;;26.27;17.90;;;3.10;97.70;;;;;;5075662;28;20468;-71
2021/01/24 08:26:31;;;;;;;30.37;20.23;;;3.10;97.70;;;;;;5075599;28;20482;-70
2021/01/24 08:28:59;;;;;;;27.00;18.33;;;3.10;97.70;;;;;;5075332;28;20817;-71
2021/01/24 08:31:27;;;;;;;26.47;19.73;;;3.10;97.60;;;;;;5075254;28;20934;-70
2021/01/24 08:33:55;;;;;;;35.63;17.27;;;3.10;97.60;;;;;;5075562;28;20499;-70
2021/01/24 08:36:24;;;;;;;35.23;19.67;;;3.10;97.60;;;;;;5075473;28;20459;-70
2021/01/24 08:38:55;;;;;;;29.27;18.70;;;3.00;97.60;;;;;;5075432;28;20447;-70
2021/01/24 08:41:28;;;;;;;26.93;17.07;;;3.00;97.70;;;;;;5075467;28;20435;-70
2021/01/24 08:44:02;;;;;;;29.87;16.23;;;3.00;97.80;;;;;;5075256;28;20468;-70
2021/01/24 08:46:36;;;;;;;23.00;13.83;;;3.00;97.80;;;;;;5075474;28;20473;-68
2021/01/24 08:49:05;;;;;;;20.20;12.60;;;2.90;97.80;;;;;;5075335;28;20808;-70
2021/01/24 08:51:49;;;;;;;20.03;14.23;;;2.90;97.80;;;;;;5075067;28;20961;-70
2021/01/24 08:54:23;;;;;;;21.03;13.80;;;2.90;97.80;;;;;;5075114;28;20467;-70
2021/01/24 08:56:50;;;;;;;22.57;13.77;;;2.90;97.80;;;;;;5075149;28;20426;-70
2021/01/24 08:59:21;;;;;;;26.57;14.77;;;2.90;97.90;;;;;;5075026;28;20450;-70
2021/01/24 09:01:50;;;;;;;27.23;15.50;;;2.90;98.00;;;;;;5074993;28;20438;-70
2021/01/24 09:04:24;;;;;;;36.33;17.80;;;3.00;98.10;;;;;;5074874;28;20502;-70
2021/01/24 09:07:17;;;;;;;33.80;17.73;;;3.00;98.00;;;;;;5074550;28;20992;-70
2021/01/24 09:09:45;;;;;;;28.70;16.37;;;3.00;97.90;;;;;;5050203;28;20451;-70
2021/01/24 09:12:14;;;;;;;22.33;14.87;;;3.00;97.90;;;;;;5074419;28;21083;-70
2021/01/24 09:14:40;;;;;;;27.80;16.87;;;3.00;98.40;;;;;;5074336;28;20984;-71
2021/01/24 09:17:10;;;;;;;27.33;15.83;;;3.00;98.10;;;;;;5074005;28;20493;-70
2021/01/24 09:19:38;;;;;;;31.43;16.67;;;3.00;98.10;;;;;;5074308;28;20427;-70
2021/01/24 09:22:08;;;;;;;24.30;12.77;;;3.00;98.10;;;;;;5074605;28;20458;-70
2021/01/24 09:24:35;;;;;;;24.80;14.00;;;3.00;98.00;;;;;;5074329;28;20474;-70
2021/01/24 09:27:01;;;;;;;20.20;12.50;;;3.00;98.00;;;;;;5074497;28;20471;-70
2021/01/24 09:29:28;;;;;;;26.83;14.97;;;3.00;98.00;;;;;;5074403;28;20443;-70
2021/01/24 09:31:54;;;;;;;24.03;13.10;;;3.00;98.00;;;;;;5074395;28;20505;-70
2021/01/24 09:34:21;;;;;;;20.77;13.87;;;3.10;97.90;;;;;;5074238;28;20491;-70
2021/01/24 09:36:47;;;;;;;21.00;14.37;;;3.10;98.00;;;;;;5073935;28;20963;-70
2021/01/24 09:39:14;;;;;;;23.77;13.27;;;3.00;97.90;;;;;;5074289;28;20435;-70
2021/01/24 09:41:40;;;;;;;15.47;10.93;;;3.00;98.00;;;;;;5074184;28;20455;-70
2021/01/24 09:44:07;;;;;;;18.70;12.73;;;3.00;97.90;;;;;;5074099;28;20467;-70
2021/01/24 09:46:34;;;;;;;19.37;11.73;;;3.00;98.00;;;;;;5074047;28;20546;-70
2021/01/24 09:49:00;;;;;;;20.07;13.10;;;3.00;98.00;;;;;;5074066;28;20450;-70
2021/01/24 09:51:27;;;;;;;18.90;11.27;;;3.00;98.10;;;;;;5074031;28;20447;-69
2021/01/24 09:53:56;;;;;;;21.90;11.07;;;3.00;98.10;;;;;;5073925;28;20468;-70
2021/01/24 09:56:23;;;;;;;20.27;13.20;;;3.00;98.10;;;;;;5073756;28;20898;-69
2021/01/24 09:58:49;;;;;;;20.57;12.73;;;3.10;98.00;;;;;;5073922;28;20442;-70
2021/01/24 10:01:16;;;;;;;21.00;12.50;;;3.10;98.00;;;;;;5073894;28;20435;-70
2021/01/24 10:03:44;;;;;;;20.13;12.37;;;3.10;97.80;;;;;;5073782;28;20524;-70
2021/01/24 10:06:10;;;;;;;18.20;12.97;;;3.20;97.90;;;;;;5073779;28;20532;-70
2021/01/24 10:08:37;;;;;;;19.80;12.10;;;3.10;97.80;;;;;;5073837;28;20435;-70
2021/01/24 10:11:03;;;;;;;21.03;10.80;;;3.10;97.90;;;;;;5073520;28;20463;-70
2021/01/24 10:13:29;;;;;;;17.43;11.23;;;3.10;97.90;;;;;;5073658;28;20462;-70
2021/01/24 10:15:56;;;;;;;20.80;12.20;;;3.10;97.90;;;;;;5073696;28;20602;-70
2021/01/24 10:18:22;;;;;;;19.80;12.70;;;3.20;98.00;;;;;;5073670;28;20508;-70
2021/01/24 10:20:49;;;;;;;22.17;14.00;;;3.20;97.90;;;;;;5073652;28;20439;-70
2021/01/24 10:23:17;;;;;;;26.13;15.03;;;3.20;97.80;;;;;;5073518;28;20448;-70
2021/01/24 10:25:44;;;;;;;25.47;15.83;;;3.20;97.70;;;;;;5073562;28;20483;-69
2021/01/24 10:28:11;;;;;;;27.77;16.87;;;3.20;97.60;;;;;;5072649;28;20451;-69
2021/01/24 10:30:37;;;;;;;26.37;15.30;;;3.20;97.70;;;;;;5073560;28;20492;-69
2021/01/24 10:33:03;;;;;;;26.37;16.30;;;3.20;97.60;;;;;;5073512;28;20451;-69
2021/01/24 10:35:30;;;;;;;22.77;14.97;;;3.20;97.60;;;;;;5073471;28;20454;-69
2021/01/24 10:37:56;;;;;;;20.83;14.60;;;3.20;97.50;;;;;;5073177;28;20982;-69
2021/01/24 10:40:22;;;;;;;25.00;16.00;;;3.20;97.50;;;;;;5073438;28;20459;-69
2021/01/24 10:42:49;;;;;;;24.00;15.57;;;3.20;97.50;;;;;;5073462;28;20428;-69
2021/01/24 10:45:15;;;;;;;24.10;16.03;;;3.20;97.30;;;;;;5073289;28;20830;-69
2021/01/24 10:47:42;;;;;;;24.00;16.30;;;3.20;97.40;;;;;;5072967;28;21036;-69
2021/01/24 10:50:09;;;;;;;29.20;18.00;;;3.30;97.40;;;;;;5072993;28;20929;-69
2021/01/24 10:52:36;;;;;;;28.80;16.03;;;3.30;97.20;;;;;;5072963;28;21011;-69
2021/01/24 10:55:02;;;;;;;29.47;16.30;;;3.30;97.10;;;;;;5073210;28;20464;-69
2021/01/24 10:57:28;;;;;;;23.83;16.60;;;3.30;97.10;;;;;;5073244;28;20489;-68
2021/01/24 10:59:55;;;;;;;25.77;17.53;;;3.40;97.10;;;;;;5073245;28;20431;-68
2021/01/24 11:02:22;;;;;;;24.97;16.80;;;3.40;96.90;;;;;;5073285;28;20428;-68
2021/01/24 11:04:48;;;;;;;27.27;16.93;;;3.50;96.90;;;;;;5073088;28;20465;-69
2021/01/24 11:07:14;;;;;;;23.63;15.60;;;3.60;96.80;;;;;;5073075;28;20476;-70
2021/01/24 11:09:43;;;;;;;27.37;17.30;;;3.60;96.60;;;;;;5073128;28;20429;-69
2021/01/24 11:12:10;;;;;;;22.70;16.60;;;3.60;96.50;;;;;;5072793;28;20856;-69
2021/01/24 11:14:36;;;;;;;25.10;16.80;;;3.60;96.60;;;;;;5073012;28;20471;-69
2021/01/24 11:17:03;;;;;;;22.40;16.70;;;3.50;96.50;;;;;;5073105;28;20432;-71
2021/01/24 11:19:29;;;;;;;24.33;17.87;;;3.50;96.40;;;;;;5073077;28;20436;-73
2021/01/24 11:21:55;;;;;;;24.00;17.90;;;3.60;96.50;;;;;;5073040;28;20443;-72
2021/01/24 11:24:22;;;;;;;22.40;16.87;;;3.60;96.40;;;;;;5072686;28;20990;-69
2021/01/24 11:26:48;;;;;;;23.37;15.87;;;3.60;96.30;;;;;;5072911;28;20472;-68
2021/01/24 11:29:14;;;;;;;20.77;16.07;;;3.70;96.30;;;;;;5072941;28;20428;-69
2021/01/24 11:31:40;;;;;;;22.40;16.77;;;3.70;96.10;;;;;;5072932;28;20428;-70
2021/01/24 11:34:07;;;;;;;21.20;16.73;;;3.70;96.30;;;;;;5072907;28;20464;-69
2021/01/24 11:36:34;;;;;;;22.40;15.63;;;3.80;96.10;;;;;;5072857;28;20436;-74
2021/01/24 11:39:00;;;;;;;25.60;16.10;;;3.80;96.00;;;;;;5074026;28;20451;-70
2021/01/24 11:41:26;;;;;;;23.97;14.80;;;3.80;95.90;;;;;;5076276;28;20429;-70
2021/01/24 11:43:52;;;;;;;20.87;14.80;;;3.90;95.80;;;;;;5076473;28;20483;-69
2021/01/24 11:46:19;;;;;;;20.63;14.67;;;3.90;95.50;;;;;;5076572;28;20467;-69
2021/01/24 11:48:45;;;;;;;17.53;13.67;;;4.00;95.50;;;;;;5076471;28;20433;-69
2021/01/24 11:51:12;;;;;;;16.20;12.63;;;4.00;95.40;;;;;;5076098;28;20906;-69
2021/01/24 11:53:39;;;;;;;23.07;13.53;;;4.10;95.40;;;;;;5076306;28;20471;-69
2021/01/24 11:56:06;;;;;;;24.00;12.57;;;4.20;95.40;;;;;;5076013;28;20898;-68
2021/01/24 11:58:32;;;;;;;17.63;12.63;;;4.30;95.10;;;;;;5076265;28;20795;-69
2021/01/24 12:00:58;;;;;;;17.00;11.93;;;4.40;94.90;;;;;;5075904;28;20921;-69
2021/01/24 12:03:25;;;;;;;14.50;11.07;;;4.60;94.50;;;;;;5076068;28;20464;-69
2021/01/24 12:05:51;;;;;;;15.73;10.37;;;4.70;94.10;;;;;;5076097;28;20489;-69
2021/01/24 12:08:18;;;;;;;16.90;11.73;;;4.80;93.70;;;;;;5076042;28;20447;-69
2021/01/24 12:10:44;;;;;;;13.40;10.97;;;4.90;93.60;;;;;;5075794;28;20460;-69
2021/01/24 12:13:10;;;;;;;15.10;10.30;;;4.90;92.90;;;;;;5075579;28;20931;-69
2021/01/24 12:15:37;;;;;;;16.87;11.20;;;4.90;92.90;;;;;;5075877;28;20447;-69
2021/01/24 12:18:03;;;;;;;13.60;9.63;;;4.90;92.40;;;;;;5075902;28;20432;-70
2021/01/24 12:20:38;;;;;;;18.63;9.60;;;4.90;92.40;;;;;;5087233;28;20452;-70
2021/01/24 12:23:05;;;;;;;15.70;9.20;;;5.00;92.30;;;;;;5084128;28;20425;-70
2021/01/24 12:25:32;;;;;;;12.00;8.67;;;5.00;92.20;;;;;;5075658;28;20436;-70
2021/01/24 12:27:58;;;;;;;17.90;9.67;;;5.00;92.10;;;;;;5075736;28;20448;-70
2021/01/24 12:30:24;;;;;;;12.30;8.50;;;5.10;92.10;;;;;;5075603;28;20502;-70
2021/01/24 12:32:50;;;;;;;10.80;8.60;;;5.20;91.70;;;;;;5075596;28;20429;-71
2021/01/24 12:35:17;;;;;;;15.03;9.37;;;5.30;91.60;;;;;;5075451;28;20464;-71
2021/01/24 12:37:43;;;;;;;15.53;9.10;;;5.30;91.50;;;;;;5075476;28;20437;-71
2021/01/24 12:40:10;;;;;;;15.77;8.60;;;5.40;91.10;;;;;;5075473;28;20437;-69
2021/01/24 12:42:37;;;;;;;12.40;8.83;;;5.50;90.80;;;;;;5075725;28;20413;-69
2021/01/24 12:45:05;;;;;;;12.53;7.67;;;5.60;90.60;;;;;;5075287;28;20468;-71
2021/01/24 12:47:31;;;;;;;11.80;7.60;;;5.60;90.20;;;;;;5075288;28;20467;-69
2021/01/24 12:49:57;;;;;;;16.63;8.13;;;5.70;90.20;;;;;;5074878;28;20448;-69